Time;durP1;ratioP1;P1;durP2;ratioP2;P2;SDS_P1;SDS_P2;PMS_P1;PMS_P2;Temp;Humidity;BMP_temperature;BMP_pressure;BME280_temperature;BME280_humidity;BME280_pressure;Samples;Min_cycle;Max_cycle;Signal;HPM_P1;HPM_P2
2021/06/25 00:01:24;;;;;;;;;3.00;3.00;;;;;;;;3554939;39;113735;-86
2021/06/25 00:03:52;;;;;;;;;3.50;2.00;;;;;;;;3554645;39;113954;-87
2021/06/25 00:06:19;;;;;;;;;5.25;3.00;;;;;;;;3554526;39;112000;-87
2021/06/25 00:08:45;;;;;;;;;4.00;3.75;;;;;;;;3554723;39;113209;-86
2021/06/25 00:11:15;;;;;;;;;3.25;3.25;;;;;;;;3556872;39;114074;-86
2021/06/25 00:13:41;;;;;;;;;4.75;4.75;;;;;;;;3554915;39;113310;-87
2021/06/25 00:16:08;;;;;;;;;2.00;2.00;;;;;;;;3554451;39;113870;-89
2021/06/25 00:18:35;;;;;;;;;3.00;3.00;;;;;;;;3555144;39;112561;-87
2021/06/25 00:21:03;;;;;;;;;3.25;3.25;;;;;;;;3553197;39;113193;-87
2021/06/25 00:23:29;;;;;;;;;2.00;2.00;;;;;;;;3554975;39;114143;-88
2021/06/25 00:25:56;;;;;;;;;4.00;2.50;;;;;;;;3555058;39;111892;-87
2021/06/25 00:28:23;;;;;;;;;3.00;3.00;;;;;;;;3555223;39;112920;-86
2021/06/25 00:30:49;;;;;;;;;3.75;3.00;;;;;;;;3557702;39;114246;-87
2021/06/25 00:33:16;;;;;;;;;2.75;2.00;;;;;;;;3556887;39;113623;-88
2021/06/25 00:35:43;;;;;;;;;5.50;3.75;;;;;;;;3555034;39;114157;-86
2021/06/25 00:38:11;;;;;;;;;3.00;1.75;;;;;;;;3554658;39;112290;-82
2021/06/25 00:40:37;;;;;;;;;3.50;2.50;;;;;;;;3554611;39;113255;-81
2021/06/25 00:43:04;;;;;;;;;2.00;2.00;;;;;;;;3554427;39;113029;-82
2021/06/25 00:45:31;;;;;;;;;2.00;2.00;;;;;;;;3552821;39;111826;-83
2021/06/25 00:47:58;;;;;;;;;5.25;2.25;;;;;;;;3555094;39;113487;-82
2021/06/25 00:50:26;;;;;;;;;4.00;2.00;;;;;;;;3554366;39;115023;-81
2021/06/25 00:52:52;;;;;;;;;2.00;2.00;;;;;;;;3557572;39;111788;-83
2021/06/25 00:55:21;;;;;;;;;2.00;2.00;;;;;;;;3554818;39;114411;-82
2021/06/25 00:57:47;;;;;;;;;3.00;3.00;;;;;;;;3555763;39;112028;-82
2021/06/25 01:00:14;;;;;;;;;2.00;2.00;;;;;;;;3554514;39;113328;-82
2021/06/25 01:02:41;;;;;;;;;3.00;3.00;;;;;;;;3554218;39;114507;-82
2021/06/25 01:05:08;;;;;;;;;2.50;2.50;;;;;;;;3552500;39;112596;-83
2021/06/25 01:07:35;;;;;;;;;2.25;2.25;;;;;;;;3554394;39;113395;-82
2021/06/25 01:10:04;;;;;;;;;2.75;2.75;;;;;;;;3552146;39;114236;-82
2021/06/25 01:12:32;;;;;;;;;3.00;2.00;;;;;;;;3552027;39;111932;-83
2021/06/25 01:14:58;;;;;;;;;3.00;3.00;;;;;;;;3556445;39;113230;-84
2021/06/25 01:17:31;;;;;;;;;3.75;3.00;;;;;;;;3554010;39;111966;-83
2021/06/25 01:19:58;;;;;;;;;3.75;3.00;;;;;;;;3554401;39;113349;-82
2021/06/25 01:22:34;;;;;;;;;3.00;3.00;;;;;;;;3553663;39;113860;-82
2021/06/25 01:25:00;;;;;;;;;4.50;4.00;;;;;;;;3554239;39;112036;-81
2021/06/25 01:27:27;;;;;;;;;4.00;2.00;;;;;;;;3554175;39;113233;-82
2021/06/25 01:29:56;;;;;;;;;2.00;2.00;;;;;;;;3553935;39;113801;-83
2021/06/25 01:32:22;;;;;;;;;3.00;3.00;;;;;;;;3554294;39;112111;-83
2021/06/25 01:34:49;;;;;;;;;4.00;3.00;;;;;;;;3554388;39;113413;-82
2021/06/25 01:37:16;;;;;;;;;3.75;2.75;;;;;;;;3556267;39;113852;-84
2021/06/25 01:39:47;;;;;;;;;5.00;3.50;;;;;;;;3554216;39;113701;-84
2021/06/25 01:42:17;;;;;;;;;3.25;3.25;;;;;;;;3553589;39;114345;-81
2021/06/25 01:44:45;;;;;;;;;3.00;2.00;;;;;;;;3554002;39;112232;-85
2021/06/25 01:47:11;;;;;;;;;3.00;3.00;;;;;;;;3554403;39;113405;-82
2021/06/25 01:49:38;;;;;;;;;4.00;3.00;;;;;;;;3553782;39;114361;-85
2021/06/25 01:52:05;;;;;;;;;2.75;2.75;;;;;;;;3554070;39;111875;-85
2021/06/25 01:54:31;;;;;;;;;3.00;2.25;;;;;;;;3552336;39;113111;-84
2021/06/25 01:56:59;;;;;;;;;2.25;2.25;;;;;;;;3553485;39;114012;-82
2021/06/25 01:59:26;;;;;;;;;2.75;2.50;;;;;;;;3556615;39;111909;-81
2021/06/25 02:01:52;;;;;;;;;2.00;2.00;;;;;;;;3553824;39;113980;-81
2021/06/25 02:04:19;;;;;;;;;2.00;2.00;;;;;;;;3553970;39;111881;-81
2021/06/25 02:06:45;;;;;;;;;4.50;4.50;;;;;;;;3554283;39;113175;-82
2021/06/25 02:09:12;;;;;;;;;3.25;3.00;;;;;;;;3553420;39;113813;-80
2021/06/25 02:11:41;;;;;;;;;4.50;4.00;;;;;;;;3554191;39;112726;-81
2021/06/25 02:14:09;;;;;;;;;2.25;2.25;;;;;;;;3553999;39;113342;-82
2021/06/25 02:16:38;;;;;;;;;5.00;2.00;;;;;;;;3553572;39;113954;-81
2021/06/25 02:19:05;;;;;;;;;3.00;3.00;;;;;;;;3553901;39;112035;-81
2021/06/25 02:21:32;;;;;;;;;2.00;2.00;;;;;;;;3556231;39;113757;-82
2021/06/25 02:23:58;;;;;;;;;3.25;3.25;;;;;;;;3554645;39;111979;-81
2021/06/25 02:26:25;;;;;;;;;4.75;2.25;;;;;;;;3555271;39;113590;-81
2021/06/25 02:28:51;;;;;;;;;4.00;3.00;;;;;;;;3555101;39;113856;-82
2021/06/25 02:31:20;;;;;;;;;5.00;4.00;;;;;;;;3555215;39;111903;-81
2021/06/25 02:33:48;;;;;;;;;4.00;3.25;;;;;;;;3555434;39;113200;-82
2021/06/25 02:36:14;;;;;;;;;3.25;3.25;;;;;;;;3554710;39;113766;-84
2021/06/25 02:38:42;;;;;;;;;3.00;3.00;;;;;;;;3555464;39;111899;-75
2021/06/25 02:41:08;;;;;;;;;4.75;3.75;;;;;;;;3557417;39;113187;-77
2021/06/25 02:43:35;;;;;;;;;3.75;3.00;;;;;;;;3554933;39;112219;-81
2021/06/25 02:46:01;;;;;;;;;3.00;3.00;;;;;;;;3555166;39;113819;-78
2021/06/25 02:48:29;;;;;;;;;4.50;3.00;;;;;;;;3554464;39;113995;-79
2021/06/25 02:50:56;;;;;;;;;3.50;3.50;;;;;;;;3554819;39;111882;-79
2021/06/25 02:53:23;;;;;;;;;4.00;4.00;;;;;;;;3554720;39;114226;-79
2021/06/25 02:55:52;;;;;;;;;3.00;2.75;;;;;;;;3554642;39;113901;-79
2021/06/25 02:58:19;;;;;;;;;3.00;3.00;;;;;;;;3555002;39;111797;-79
2021/06/25 03:00:46;;;;;;;;;4.25;4.00;;;;;;;;3554857;39;113649;-79
2021/06/25 03:03:12;;;;;;;;;3.00;3.00;;;;;;;;3557942;39;114096;-80
2021/06/25 03:05:40;;;;;;;;;3.00;3.00;;;;;;;;3556727;39;113267;-80
2021/06/25 03:08:07;;;;;;;;;4.75;3.75;;;;;;;;3555354;39;114518;-79
2021/06/25 03:10:33;;;;;;;;;3.25;3.25;;;;;;;;3554960;39;112044;-79
2021/06/25 03:13:00;;;;;;;;;3.25;3.00;;;;;;;;3553111;39;113259;-79
2021/06/25 03:15:27;;;;;;;;;4.50;4.00;;;;;;;;3554186;39;114536;-79
2021/06/25 07:42:46;;;;;;;;;0.00;0.00;;;;;;;;3549032;39;1426844;-80
2021/06/25 07:45:13;;;;;;;;;0.00;0.00;;;;;;;;3577921;39;113933;-76
2021/06/25 07:47:41;;;;;;;;;0.00;0.00;;;;;;;;3577799;39;112248;-75
2021/06/25 07:50:08;;;;;;;;;0.00;0.00;;;;;;;;3576574;39;113698;-76
2021/06/25 07:52:35;;;;;;;;;1.00;0.00;;;;;;;;3577710;39;113833;-75
2021/06/25 07:55:02;;;;;;;;;0.67;0.00;;;;;;;;3575178;39;112526;-80
2021/06/25 07:57:28;;;;;;;;;0.00;0.00;;;;;;;;3579374;39;113491;-81
2021/06/25 07:59:56;;;;;;;;;2.67;0.00;;;;;;;;3575650;39;114369;-75
2021/06/25 08:02:23;;;;;;;;;2.00;2.00;;;;;;;;3579761;39;111950;-75
2021/06/25 08:04:49;;;;;;;;;0.00;0.00;;;;;;;;3575774;39;113829;-75
2021/06/25 08:07:17;;;;;;;;;2.00;0.33;;;;;;;;3575449;39;111846;-76
2021/06/25 08:09:44;;;;;;;;;1.67;0.00;;;;;;;;3572264;39;112388;-75
2021/06/25 08:12:11;;;;;;;;;0.33;0.00;;;;;;;;3574499;39;113634;-76
2021/06/25 08:14:38;;;;;;;;;1.33;0.00;;;;;;;;3574290;39;112242;-76
2021/06/25 08:17:07;;;;;;;;;1.00;1.00;;;;;;;;3574201;39;113669;-76
2021/06/25 08:19:33;;;;;;;;;1.00;1.00;;;;;;;;3575651;39;113795;-76
2021/06/25 08:22:00;;;;;;;;;0.25;0.25;;;;;;;;3576016;39;112017;-76
2021/06/25 08:24:27;;;;;;;;;0.00;0.00;;;;;;;;3577730;39;113254;-77
2021/06/25 08:26:55;;;;;;;;;0.00;0.00;;;;;;;;3575608;39;112104;-77
2021/06/25 08:29:21;;;;;;;;;0.50;0.50;;;;;;;;3576211;39;113605;-77
2021/06/25 08:31:48;;;;;;;;;1.00;0.00;;;;;;;;3573593;39;113054;-77
2021/06/25 08:34:16;;;;;;;;;0.00;0.00;;;;;;;;3576351;39;112287;-78
2021/06/25 08:36:43;;;;;;;;;0.00;0.00;;;;;;;;3576795;39;113436;-77
2021/06/25 08:39:09;;;;;;;;;0.00;0.00;;;;;;;;3575528;39;114042;-74
2021/06/25 08:41:36;;;;;;;;;0.00;0.00;;;;;;;;3577310;39;111926;-78
2021/06/25 08:44:04;;;;;;;;;0.00;0.00;;;;;;;;3577712;39;113220;-84
2021/06/25 08:46:32;;;;;;;;;0.00;0.00;;;;;;;;3578445;39;113831;-86
2021/06/25 08:49:00;;;;;;;;;0.00;0.00;;;;;;;;3575988;39;113318;-81
2021/06/25 08:51:28;;;;;;;;;0.00;0.00;;;;;;;;3575410;39;113842;-75
2021/06/25 08:53:54;;;;;;;;;0.00;0.00;;;;;;;;3570994;39;111935;-77
2021/06/25 08:56:21;;;;;;;;;0.00;0.00;;;;;;;;3570549;39;113764;-78
2021/06/25 08:58:48;;;;;;;;;0.00;0.00;;;;;;;;3569214;39;113751;-82
2021/06/25 09:01:15;;;;;;;;;0.00;0.00;;;;;;;;3569543;39;111881;-81
2021/06/25 09:03:42;;;;;;;;;0.00;0.00;;;;;;;;3570083;39;113722;-80
2021/06/25 09:06:10;;;;;;;;;1.00;1.00;;;;;;;;3568853;39;114541;-79
2021/06/25 09:08:39;;;;;;;;;0.00;0.00;;;;;;;;3573288;39;112008;-77
2021/06/25 09:11:17;;;;;;;;;0.00;0.00;;;;;;;;3571188;39;113919;-76
2021/06/25 09:13:43;;;;;;;;;0.00;0.00;;;;;;;;3573812;39;112226;-72
2021/06/25 09:16:19;;;;;;;;;1.00;1.00;;;;;;;;3571214;39;113250;-74
2021/06/25 09:18:55;;;;;;;;;1.00;1.00;;;;;;;;3571684;39;113767;-77
2021/06/25 09:21:22;;;;;;;;;0.50;0.50;;;;;;;;3570455;39;111796;-76
2021/06/25 09:23:49;;;;;;;;;0.25;0.00;;;;;;;;3570312;39;113178;-77
2021/06/25 09:26:20;;;;;;;;;1.00;1.00;;;;;;;;3572149;39;113895;-81
2021/06/25 09:28:48;;;;;;;;;0.00;0.00;;;;;;;;3569774;39;112119;-79
2021/06/25 09:31:16;;;;;;;;;0.50;0.50;;;;;;;;3571639;39;113207;-81
2021/06/25 09:33:46;;;;;;;;;1.00;1.00;;;;;;;;3569710;39;111974;-73
2021/06/25 09:36:21;;;;;;;;;0.50;0.00;;;;;;;;3569451;39;113320;-77
2021/06/25 09:38:47;;;;;;;;;2.25;2.25;;;;;;;;3568889;39;114101;-82
2021/06/25 09:41:20;;;;;;;;;1.25;1.00;;;;;;;;3568664;39;111876;-77
2021/06/25 09:43:54;;;;;;;;;1.00;1.00;;;;;;;;3569489;39;113575;-76
2021/06/25 09:46:25;;;;;;;;;1.75;1.50;;;;;;;;3569507;39;114224;-76
2021/06/25 09:48:52;;;;;;;;;0.00;0.00;;;;;;;;3569241;39;114032;-75
2021/06/25 09:51:19;;;;;;;;;2.25;2.00;;;;;;;;3569496;39;113798;-77
2021/06/25 09:54:00;;;;;;;;;0.00;0.00;;;;;;;;3570387;39;112462;-76
2021/06/25 09:56:28;;;;;;;;;0.25;0.25;;;;;;;;3570321;39;114406;-76
2021/06/25 09:59:22;;;;;;;;;0.50;0.00;;;;;;;;3568757;39;113944;-76
2021/06/25 10:01:48;;;;;;;;;1.00;0.00;;;;;;;;3566893;39;111975;-77
2021/06/25 10:04:14;;;;;;;;;1.00;1.00;;;;;;;;3566744;39;112114;-75
2021/06/25 10:06:41;;;;;;;;;0.00;0.00;;;;;;;;3568357;39;114687;-74
2021/06/25 10:09:07;;;;;;;;;0.67;0.67;;;;;;;;3569726;39;111860;-74
2021/06/25 10:11:35;;;;;;;;;1.33;1.33;;;;;;;;3570567;39;113393;-77
2021/06/25 10:14:03;;;;;;;;;1.33;0.00;;;;;;;;3571089;39;115140;-76
2021/06/25 10:16:30;;;;;;;;;2.00;2.00;;;;;;;;3570432;39;113245;-75
2021/06/25 10:18:57;;;;;;;;;1.00;1.00;;;;;;;;3569479;39;114191;-75
2021/06/25 10:21:25;;;;;;;;;1.67;1.00;;;;;;;;3568656;39;112022;-78
2021/06/25 10:23:52;;;;;;;;;1.00;1.00;;;;;;;;3568487;39;113243;-76
2021/06/25 10:26:20;;;;;;;;;0.00;0.00;;;;;;;;3568450;39;113833;-77
2021/06/25 10:28:49;;;;;;;;;2.67;1.67;;;;;;;;3569397;39;111886;-78
2021/06/25 10:31:17;;;;;;;;;0.00;0.00;;;;;;;;3568907;39;113261;-77
2021/06/25 10:33:44;;;;;;;;;1.00;1.00;;;;;;;;3571391;39;114705;-78
2021/06/25 10:36:11;;;;;;;;;0.00;0.00;;;;;;;;3574441;39;111941;-77
2021/06/25 10:38:41;;;;;;;;;2.33;1.00;;;;;;;;3571533;39;114185;-77
2021/06/25 10:41:08;;;;;;;;;1.00;1.00;;;;;;;;3572337;39;112026;-79
2021/06/25 10:43:39;;;;;;;;;1.00;1.00;;;;;;;;3567462;39;114191;-83
2021/06/25 10:46:07;;;;;;;;;3.00;1.00;;;;;;;;3567939;39;113831;-79
2021/06/25 10:48:38;;;;;;;;;3.67;3.00;;;;;;;;3572347;39;111731;-80
2021/06/25 10:51:19;;;;;;;;;0.67;0.67;;;;;;;;3569780;39;113255;-83
2021/06/25 10:54:00;;;;;;;;;0.00;0.00;;;;;;;;3566970;39;113956;-86
2021/06/25 10:56:27;;;;;;;;;0.67;0.67;;;;;;;;3569761;39;112609;-83
2021/06/25 10:59:18;;;;;;;;;1.00;0.00;;;;;;;;3571098;39;113513;-84
2021/06/25 11:01:53;;;;;;;;;1.00;1.00;;;;;;;;3569367;39;111792;-86
2021/06/25 11:04:33;;;;;;;;;1.33;1.33;;;;;;;;3569190;39;113587;-81
2021/06/25 11:07:02;;;;;;;;;1.00;1.00;;;;;;;;3567632;39;113982;-83
2021/06/25 11:09:49;;;;;;;;;1.67;1.67;;;;;;;;3570091;39;113196;-83
2021/06/25 11:12:22;;;;;;;;;1.67;1.67;;;;;;;;3569066;39;113291;-82
2021/06/25 11:14:49;;;;;;;;;1.67;1.67;;;;;;;;3570013;39;114061;-82
2021/06/25 11:17:42;;;;;;;;;1.00;1.00;;;;;;;;3569879;39;112537;-82
2021/06/25 11:20:18;;;;;;;;;0.67;0.67;;;;;;;;3544887;39;113021;-81
2021/06/25 11:22:51;;;;;;;;;1.00;1.00;;;;;;;;3569212;39;113721;-76
2021/06/25 11:25:32;;;;;;;;;1.00;1.00;;;;;;;;3568834;39;113271;-75
2021/06/25 11:28:19;;;;;;;;;1.00;1.00;;;;;;;;3567256;39;114194;-78
2021/06/25 11:30:52;;;;;;;;;2.33;2.33;;;;;;;;3568577;39;112397;-76
2021/06/25 11:33:26;;;;;;;;;0.33;0.33;;;;;;;;3570880;39;112780;-78
2021/06/25 11:35:54;;;;;;;;;1.00;1.00;;;;;;;;3568149;39;113906;-77
2021/06/25 11:38:49;;;;;;;;;0.67;0.67;;;;;;;;3567856;39;111934;-79
2021/06/25 11:41:17;;;;;;;;;1.00;1.00;;;;;;;;3568695;39;113416;-75
2021/06/25 11:43:43;;;;;;;;;1.00;1.00;;;;;;;;3568690;39;113858;-75
2021/06/25 11:46:10;;;;;;;;;1.00;1.00;;;;;;;;3572399;39;111970;-77
2021/06/25 11:48:38;;;;;;;;;1.00;1.00;;;;;;;;3567759;39;113914;-77
2021/06/25 11:51:06;;;;;;;;;1.67;1.00;;;;;;;;3569530;39;111904;-74
2021/06/25 11:53:34;;;;;;;;;0.67;0.00;;;;;;;;3567758;39;113092;-75
2021/06/25 11:56:00;;;;;;;;;1.00;1.00;;;;;;;;3568447;39;113897;-75
2021/06/25 11:58:27;;;;;;;;;1.00;1.00;;;;;;;;3569169;39;112070;-75
2021/06/25 12:01:01;;;;;;;;;1.00;1.00;;;;;;;;3567884;39;113193;-74
2021/06/25 12:03:28;;;;;;;;;2.33;2.00;;;;;;;;3568666;39;113946;-73
2021/06/25 12:06:04;;;;;;;;;1.00;1.00;;;;;;;;3570429;39;111936;-76
2021/06/25 12:08:50;;;;;;;;;2.00;2.00;;;;;;;;3570954;39;115424;-81
2021/06/25 12:11:17;;;;;;;;;2.00;1.00;;;;;;;;3567767;39;112323;-78
2021/06/25 12:13:44;;;;;;;;;1.00;1.00;;;;;;;;3567555;39;113790;-73
2021/06/25 12:16:11;;;;;;;;;2.00;2.00;;;;;;;;3567341;39;113814;-75
2021/06/25 12:18:42;;;;;;;;;1.00;1.00;;;;;;;;3565994;39;111956;-75
2021/06/25 12:21:09;;;;;;;;;1.00;1.00;;;;;;;;3565961;39;113413;-83
2021/06/25 12:23:37;;;;;;;;;1.33;0.00;;;;;;;;3560409;39;113323;-79
2021/06/25 12:26:08;;;;;;;;;2.67;1.00;;;;;;;;3566234;39;112279;-77
2021/06/25 12:28:35;;;;;;;;;0.00;0.00;;;;;;;;3570445;39;113241;-75
2021/06/25 12:31:05;;;;;;;;;1.00;1.00;;;;;;;;3567040;39;112231;-76
2021/06/25 12:33:35;;;;;;;;;1.00;1.00;;;;;;;;3568779;39;113171;-76
2021/06/25 12:36:02;;;;;;;;;1.33;0.33;;;;;;;;3568233;39;113945;-75
2021/06/25 12:38:29;;;;;;;;;1.00;1.00;;;;;;;;3570698;39;111883;-75
2021/06/25 12:40:57;;;;;;;;;2.00;0.67;;;;;;;;3569190;39;113365;-78
2021/06/25 12:43:29;;;;;;;;;1.00;0.00;;;;;;;;3569572;39;114298;-74
2021/06/25 12:45:57;;;;;;;;;2.00;1.00;;;;;;;;3570148;39;112269;-73
2021/06/25 12:48:25;;;;;;;;;1.00;0.00;;;;;;;;3569146;39;113223;-77
2021/06/25 12:50:55;;;;;;;;;0.67;0.67;;;;;;;;3572161;39;113846;-79
2021/06/25 12:53:27;;;;;;;;;1.00;1.00;;;;;;;;3568778;39;113556;-77
2021/06/25 12:55:54;;;;;;;;;0.67;0.67;;;;;;;;3568204;39;113756;-77
2021/06/25 12:58:24;;;;;;;;;0.00;0.00;;;;;;;;3570022;39;112041;-74
2021/06/25 13:00:57;;;;;;;;;0.00;0.00;;;;;;;;3564073;39;112481;-75
2021/06/25 13:03:24;;;;;;;;;0.00;0.00;;;;;;;;3570065;39;114823;-76
2021/06/25 13:05:50;;;;;;;;;0.00;0.00;;;;;;;;3568953;39;112016;-73
2021/06/25 13:08:18;;;;;;;;;0.00;0.00;;;;;;;;3569654;39;113674;-75
2021/06/25 13:10:45;;;;;;;;;0.00;0.00;;;;;;;;3568887;39;113811;-73
2021/06/25 13:13:15;;;;;;;;;0.00;0.00;;;;;;;;3572155;39;111866;-74
2021/06/25 13:15:46;;;;;;;;;0.00;0.00;;;;;;;;3564548;39;112957;-74
2021/06/25 13:18:13;;;;;;;;;0.00;0.00;;;;;;;;3569804;39;111998;-77
2021/06/25 13:20:58;;;;;;;;;0.00;0.00;;;;;;;;3569604;39;113229;-76
2021/06/25 13:23:25;;;;;;;;;0.00;0.00;;;;;;;;3568304;39;115672;-76
2021/06/25 13:25:53;;;;;;;;;0.00;0.00;;;;;;;;3570128;39;111967;-75
2021/06/25 13:28:20;;;;;;;;;0.00;0.00;;;;;;;;3569308;39;113679;-75
2021/06/25 13:31:02;;;;;;;;;0.00;0.00;;;;;;;;3569335;39;114010;-75
2021/06/25 13:33:29;;;;;;;;;0.00;0.00;;;;;;;;3568672;39;112151;-76
2021/06/25 13:35:56;;;;;;;;;0.00;0.00;;;;;;;;3570963;39;113791;-76
2021/06/25 13:38:24;;;;;;;;;1.67;1.67;;;;;;;;3568859;39;112061;-76
2021/06/25 13:40:55;;;;;;;;;1.33;0.00;;;;;;;;3570319;39;113837;-76
2021/06/25 13:43:22;;;;;;;;;0.00;0.00;;;;;;;;3568314;39;113843;-80
2021/06/25 13:45:51;;;;;;;;;0.00;0.00;;;;;;;;3570357;39;112333;-82
2021/06/25 13:48:20;;;;;;;;;0.00;0.00;;;;;;;;3569739;39;113688;-80
2021/06/25 13:50:47;;;;;;;;;8.67;7.00;;;;;;;;3569134;39;114150;-75
2021/06/25 13:53:28;;;;;;;;;0.33;0.33;;;;;;;;3571016;39;113228;-72
2021/06/25 13:55:56;;;;;;;;;0.33;0.00;;;;;;;;3572159;39;113310;-74
2021/06/25 13:58:22;;;;;;;;;0.00;0.00;;;;;;;;3572351;39;114497;-74
2021/06/25 14:00:54;;;;;;;;;1.00;0.00;;;;;;;;3569125;39;113256;-74
2021/06/25 14:03:23;;;;;;;;;0.33;0.00;;;;;;;;3563304;39;113669;-78
2021/06/25 14:05:55;;;;;;;;;0.67;0.00;;;;;;;;3567017;39;112042;-73
2021/06/25 14:08:21;;;;;;;;;0.00;0.00;;;;;;;;3569718;39;113228;-73
2021/06/25 14:10:54;;;;;;;;;0.00;0.00;;;;;;;;3567825;39;114346;-73
2021/06/25 14:13:33;;;;;;;;;2.67;2.00;;;;;;;;3570440;39;113787;-74
2021/06/25 14:16:01;;;;;;;;;4.00;3.67;;;;;;;;3565621;39;112516;-76
2021/06/25 14:18:29;;;;;;;;;6.33;5.00;;;;;;;;3560567;39;113167;-73
2021/06/25 14:20:56;;;;;;;;;1.67;1.67;;;;;;;;3566845;39;112971;-73
2021/06/25 14:23:23;;;;;;;;;1.67;1.00;;;;;;;;3567756;39;114463;-73
2021/06/25 14:25:49;;;;;;;;;0.00;0.00;;;;;;;;3567246;39;114217;-74
2021/06/25 14:28:26;;;;;;;;;2.67;1.67;;;;;;;;3567696;39;113937;-74
2021/06/25 14:30:58;;;;;;;;;3.00;2.67;;;;;;;;3566488;39;113962;-74
2021/06/25 14:33:25;;;;;;;;;2.00;2.00;;;;;;;;3568238;39;112465;-74
2021/06/25 14:35:53;;;;;;;;;2.00;2.00;;;;;;;;3568291;39;113306;-74
2021/06/25 14:38:20;;;;;;;;;3.00;1.33;;;;;;;;3569164;39;113794;-74
2021/06/25 14:40:46;;;;;;;;;0.00;0.00;;;;;;;;3571393;39;112160;-74
2021/06/25 14:43:13;;;;;;;;;1.67;1.67;;;;;;;;3568421;39;113826;-75
2021/06/25 14:45:40;;;;;;;;;0.67;0.67;;;;;;;;3569378;39;112194;-73
2021/06/25 14:48:07;;;;;;;;;2.33;1.33;;;;;;;;3568449;39;113658;-73
2021/06/25 14:50:33;;;;;;;;;1.00;0.00;;;;;;;;3568768;39;114024;-75
2021/06/25 14:53:01;;;;;;;;;1.33;1.33;;;;;;;;3567967;39;113115;-73
2021/06/25 14:55:28;;;;;;;;;2.00;1.00;;;;;;;;3567898;39;113321;-72
2021/06/25 14:57:54;;;;;;;;;0.00;0.00;;;;;;;;3569755;39;113897;-73
2021/06/25 15:00:21;;;;;;;;;1.00;0.33;;;;;;;;3568561;39;111928;-73
2021/06/25 15:02:47;;;;;;;;;0.00;0.00;;;;;;;;3572436;39;113272;-77
2021/06/25 15:05:14;;;;;;;;;0.00;0.00;;;;;;;;3568868;39;112379;-72
2021/06/25 15:07:41;;;;;;;;;1.00;0.00;;;;;;;;3565450;39;112479;-71
2021/06/25 15:10:10;;;;;;;;;1.00;0.00;;;;;;;;3566066;39;113378;-73
2021/06/25 15:12:36;;;;;;;;;0.00;0.00;;;;;;;;3569987;39;111941;-72
2021/06/25 15:15:03;;;;;;;;;2.00;2.00;;;;;;;;3567876;39;113298;-72
2021/06/25 15:17:30;;;;;;;;;1.00;1.00;;;;;;;;3569551;39;114145;-72
2021/06/25 15:19:58;;;;;;;;;2.00;2.00;;;;;;;;3568204;39;111871;-71
2021/06/25 15:22:24;;;;;;;;;0.00;0.00;;;;;;;;3569948;39;113364;-75
2021/06/25 15:25:10;;;;;;;;;0.00;0.00;;;;;;;;3579229;39;112682;-79
2021/06/25 15:27:37;;;;;;;;;0.00;0.00;;;;;;;;3566281;39;113901;-80
2021/06/25 15:30:05;;;;;;;;;1.00;0.00;;;;;;;;3565976;39;111866;-78
2021/06/25 15:32:32;;;;;;;;;0.33;0.00;;;;;;;;3563854;39;112492;-82
2021/06/25 15:34:59;;;;;;;;;0.00;0.00;;;;;;;;3564931;39;114553;-79
2021/06/25 15:37:27;;;;;;;;;0.00;0.00;;;;;;;;3565685;39;112589;-83
2021/06/25 15:39:54;;;;;;;;;0.00;0.00;;;;;;;;3565298;39;112928;-78
2021/06/25 15:42:22;;;;;;;;;0.67;0.00;;;;;;;;3565201;39;114294;-75
2021/06/25 15:44:49;;;;;;;;;0.00;0.00;;;;;;;;3569089;39;112246;-73
2021/06/25 15:47:18;;;;;;;;;0.00;0.00;;;;;;;;3565911;39;113887;-73
2021/06/25 15:49:45;;;;;;;;;0.00;0.00;;;;;;;;3566338;39;112135;-72
2021/06/25 15:52:11;;;;;;;;;0.00;0.00;;;;;;;;3566241;39;112755;-72
2021/06/25 15:54:38;;;;;;;;;0.00;0.00;;;;;;;;3565074;39;114074;-70
2021/06/25 15:57:05;;;;;;;;;0.00;0.00;;;;;;;;3565534;39;112202;-71
2021/06/25 15:59:33;;;;;;;;;0.00;0.00;;;;;;;;3564047;39;113157;-72
2021/06/25 16:01:59;;;;;;;;;0.00;0.00;;;;;;;;3566743;39;113966;-71
2021/06/25 16:04:26;;;;;;;;;0.67;0.67;;;;;;;;3565281;39;112005;-73
2021/06/25 16:06:53;;;;;;;;;1.33;1.00;;;;;;;;3569019;39;113366;-72
2021/06/25 16:09:23;;;;;;;;;0.00;0.00;;;;;;;;3566318;39;111998;-72
2021/06/25 16:11:50;;;;;;;;;0.00;0.00;;;;;;;;3565293;39;113179;-72
2021/06/25 16:14:17;;;;;;;;;0.00;0.00;;;;;;;;3564595;39;113862;-72
2021/06/25 16:16:45;;;;;;;;;0.00;0.00;;;;;;;;3568063;39;111894;-75
2021/06/25 16:19:13;;;;;;;;;0.00;0.00;;;;;;;;3567159;39;113452;-73
2021/06/25 16:21:40;;;;;;;;;1.00;1.00;;;;;;;;3565394;39;113860;-75
2021/06/25 16:24:09;;;;;;;;;2.67;1.00;;;;;;;;3566573;39;112243;-73
2021/06/25 16:26:36;;;;;;;;;0.00;0.00;;;;;;;;3565708;39;113234;-75
2021/06/25 16:29:03;;;;;;;;;0.00;0.00;;;;;;;;3568448;39;114036;-79
2021/06/25 16:31:29;;;;;;;;;0.00;0.00;;;;;;;;3566712;39;113746;-76
2021/06/25 16:33:57;;;;;;;;;0.00;0.00;;;;;;;;3565141;39;114238;-75
2021/06/25 16:36:24;;;;;;;;;1.00;1.00;;;;;;;;3560647;39;112395;-76
2021/06/25 16:38:51;;;;;;;;;0.33;0.33;;;;;;;;3561920;39;113196;-73
2021/06/25 16:41:17;;;;;;;;;1.00;1.00;;;;;;;;3562994;39;113952;-73
2021/06/25 16:43:44;;;;;;;;;0.00;0.00;;;;;;;;3562487;39;112755;-74
2021/06/25 16:46:11;;;;;;;;;0.00;0.00;;;;;;;;3558087;39;113246;-73
2021/06/25 16:48:38;;;;;;;;;1.00;1.00;;;;;;;;3559338;39;113816;-75
2021/06/25 16:51:06;;;;;;;;;0.00;0.00;;;;;;;;3561401;39;112051;-75
2021/06/25 16:53:34;;;;;;;;;3.00;0.67;;;;;;;;3559674;39;114074;-74
2021/06/25 16:56:02;;;;;;;;;2.33;0.67;;;;;;;;3558393;39;111881;-74
2021/06/25 16:58:28;;;;;;;;;2.00;0.00;;;;;;;;3560376;39;113526;-74
2021/06/25 17:00:55;;;;;;;;;0.00;0.00;;;;;;;;3557833;39;113598;-74
2021/06/25 17:03:22;;;;;;;;;0.00;0.00;;;;;;;;3560074;39;112227;-73
2021/06/25 17:05:49;;;;;;;;;0.00;0.00;;;;;;;;3558850;39;113795;-73
2021/06/25 17:08:17;;;;;;;;;2.00;1.00;;;;;;;;3559060;39;114068;-72
2021/06/25 17:10:43;;;;;;;;;1.00;1.00;;;;;;;;3559316;39;111749;-74
2021/06/25 17:13:10;;;;;;;;;0.00;0.00;;;;;;;;3561367;39;113183;-72
2021/06/25 17:15:37;;;;;;;;;0.00;0.00;;;;;;;;3559499;39;113142;-74
2021/06/25 17:18:04;;;;;;;;;0.00;0.00;;;;;;;;3558695;39;113280;-77
2021/06/25 17:20:31;;;;;;;;;0.00;0.00;;;;;;;;3559951;39;114344;-73
2021/06/25 17:22:57;;;;;;;;;0.00;0.00;;;;;;;;3558409;39;111956;-76
2021/06/25 17:25:25;;;;;;;;;0.00;0.00;;;;;;;;3559923;39;113218;-75
2021/06/25 17:27:52;;;;;;;;;1.33;0.00;;;;;;;;3557919;39;114329;-76
2021/06/25 17:30:21;;;;;;;;;0.00;0.00;;;;;;;;3559474;39;112322;-75
2021/06/25 17:32:48;;;;;;;;;1.00;1.00;;;;;;;;3558805;39;113174;-75
2021/06/25 17:35:15;;;;;;;;;0.67;0.67;;;;;;;;3561506;39;112537;-75
2021/06/25 17:37:42;;;;;;;;;1.00;1.00;;;;;;;;3559310;39;113457;-74
2021/06/25 17:40:09;;;;;;;;;9.67;9.67;;;;;;;;3558532;39;113927;-76
2021/06/25 17:42:37;;;;;;;;;7.67;7.67;;;;;;;;3559362;39;112423;-73
2021/06/25 17:45:04;;;;;;;;;2.00;2.00;;;;;;;;3558665;39;113733;-73
2021/06/25 17:47:30;;;;;;;;;2.33;2.00;;;;;;;;3558590;39;114489;-72
2021/06/25 17:49:57;;;;;;;;;4.00;4.00;;;;;;;;3558116;39;112075;-74
2021/06/25 17:52:24;;;;;;;;;2.00;2.00;;;;;;;;3559686;39;113327;-72
2021/06/25 17:54:50;;;;;;;;;1.00;1.00;;;;;;;;3561255;39;114172;-74
2021/06/25 17:57:17;;;;;;;;;2.00;1.00;;;;;;;;3559351;39;113399;-75
2021/06/25 17:59:45;;;;;;;;;2.00;2.00;;;;;;;;3558256;39;114299;-73
2021/06/25 18:02:11;;;;;;;;;1.00;0.00;;;;;;;;3558984;39;112554;-72
2021/06/25 18:07:13;;;;;;;;;3.00;1.33;;;;;;;;3579708;39;112265;-72
2021/06/25 18:09:39;;;;;;;;;0.00;0.00;;;;;;;;3566349;39;113903;-75
2021/06/25 18:12:07;;;;;;;;;2.00;1.00;;;;;;;;3565983;39;111958;-74
2021/06/25 18:14:33;;;;;;;;;4.33;3.00;;;;;;;;3566812;39;113183;-74
2021/06/25 18:17:00;;;;;;;;;1.00;1.00;;;;;;;;3565085;39;114020;-75
2021/06/25 18:19:27;;;;;;;;;0.00;0.00;;;;;;;;3567199;39;112381;-75
2021/06/25 18:21:53;;;;;;;;;1.00;1.00;;;;;;;;3565986;39;113204;-73
2021/06/25 18:24:21;;;;;;;;;0.33;0.00;;;;;;;;3568498;39;114315;-74
2021/06/25 18:26:49;;;;;;;;;1.00;1.00;;;;;;;;3568794;39;111834;-78
2021/06/25 18:29:17;;;;;;;;;0.00;0.00;;;;;;;;3566247;39;114148;-72
2021/06/25 18:31:44;;;;;;;;;0.33;0.33;;;;;;;;3566371;39;111923;-72
2021/06/25 18:34:12;;;;;;;;;0.00;0.00;;;;;;;;3566304;39;113642;-73
2021/06/25 18:36:39;;;;;;;;;0.00;0.00;;;;;;;;3563634;39;113807;-72
2021/06/25 18:39:06;;;;;;;;;0.00;0.00;;;;;;;;3566524;39;112164;-77
2021/06/25 18:41:34;;;;;;;;;0.00;0.00;;;;;;;;3564792;39;113508;-77
2021/06/25 18:44:00;;;;;;;;;0.00;0.00;;;;;;;;3565865;39;113877;-76
2021/06/25 18:46:27;;;;;;;;;1.00;1.00;;;;;;;;3570367;39;112460;-76
2021/06/25 18:48:54;;;;;;;;;1.00;0.00;;;;;;;;3572738;39;113229;-75
2021/06/25 18:51:22;;;;;;;;;0.00;0.00;;;;;;;;3570515;39;112881;-76
2021/06/25 18:53:49;;;;;;;;;0.00;0.00;;;;;;;;3570143;39;113504;-75
2021/06/25 18:56:15;;;;;;;;;0.00;0.00;;;;;;;;3570205;39;114417;-75
2021/06/25 18:58:43;;;;;;;;;0.00;0.00;;;;;;;;3570424;39;112532;-75
2021/06/25 19:01:12;;;;;;;;;0.00;0.00;;;;;;;;3569575;39;113283;-74
2021/06/25 19:03:38;;;;;;;;;0.00;0.00;;;;;;;;3566423;39;112849;-74
2021/06/25 19:06:05;;;;;;;;;0.00;0.00;;;;;;;;3569022;39;112003;-74